Time;durP1;ratioP1;P1;durP2;ratioP2;P2;SDS_P1;SDS_P2;PMS_P1;PMS_P2;Temp;Humidity;BMP_temperature;BMP_pressure;BME280_temperature;BME280_humidity;BME280_pressure;Samples;Min_cycle;Max_cycle;Signal;HPM_P1;HPM_P2
2022/04/04 04:42:07;;;;;;;10.63;5.45;;;;;;;0.23;84.01;99747.42;1712150;83;21087;-36
2022/04/04 04:44:35;;;;;;;8.63;5.35;;;;;;;0.23;83.97;99757.34;1740197;82;21078;-42
2022/04/04 04:47:02;;;;;;;9.38;5.62;;;;;;;0.23;83.52;99762.48;1737305;82;21101;-37
2022/04/04 04:49:29;;;;;;;11.05;6.15;;;;;;;0.25;83.88;99765.97;1737651;82;21090;-42
2022/04/04 04:51:57;;;;;;;8.20;5.67;;;;;;;0.29;83.78;99775.96;1737405;82;21499;-36
2022/04/04 04:54:24;;;;;;;9.50;5.83;;;;;;;0.30;83.80;99781.56;1710736;83;21541;-37
2022/04/04 04:56:51;;;;;;;8.95;5.78;;;;;;;0.32;83.70;99780.32;1732586;81;21080;-43
2022/04/04 04:59:17;;;;;;;10.45;5.85;;;;;;;0.33;83.67;99785.51;1735492;82;21013;-37
2022/04/04 05:01:46;;;;;;;15.40;8.43;;;;;;;0.34;83.27;99792.81;1737361;82;21667;-36
2022/04/04 05:04:13;;;;;;;13.98;9.70;;;;;;;0.34;83.66;99791.53;1712875;82;21153;-36
2022/04/04 05:06:40;;;;;;;15.50;8.78;;;;;;;0.34;83.84;99794.97;1732738;83;21083;-43
2022/04/04 05:09:06;;;;;;;14.98;6.80;;;;;;;0.36;83.46;99804.05;1723131;82;21437;-37
2022/04/04 05:11:33;;;;;;;19.98;7.40;;;;;;;0.36;83.29;99805.34;1711844;83;21560;-36
2022/04/04 05:14:00;;;;;;;9.25;5.78;;;;;;;0.37;83.78;99808.38;1735237;82;21457;-36
2022/04/04 05:16:28;;;;;;;11.55;5.50;;;;;;;0.38;83.68;99809.70;1736776;82;21037;-37
2022/04/04 05:18:56;;;;;;;7.83;5.67;;;;;;;0.43;83.45;99816.30;1721681;82;21454;-36
2022/04/04 05:21:23;;;;;;;12.63;5.45;;;;;;;0.48;83.20;99814.33;1731529;82;22050;-36
2022/04/04 05:23:50;;;;;;;9.75;5.55;;;;;;;0.57;82.76;99821.88;1736579;82;21018;-37
2022/04/04 05:26:16;;;;;;;8.33;6.05;;;;;;;0.64;82.74;99825.11;1722422;81;21048;-36
2022/04/04 05:28:43;;;;;;;10.75;5.80;;;;;;;0.68;81.82;99820.11;1724861;82;21428;-42
2022/04/04 05:31:10;;;;;;;7.60;5.62;;;;;;;0.74;82.33;99827.16;1716601;82;21093;-37
2022/04/04 05:33:37;;;;;;;8.45;5.58;;;;;;;0.77;81.06;99826.85;1713704;82;21605;-42
2022/04/04 05:36:05;;;;;;;8.50;5.95;;;;;;;0.84;81.57;99820.61;1704122;83;21584;-36
2022/04/04 05:38:32;;;;;;;8.20;5.50;;;;;;;0.90;81.50;99825.53;1722208;82;21528;-36
2022/04/04 05:40:59;;;;;;;10.38;5.60;;;;;;;0.97;80.71;99818.86;1694503;84;21064;-36
2022/04/04 05:43:27;;;;;;;9.50;6.00;;;;;;;1.01;80.40;99822.00;1714782;82;21079;-36
2022/04/04 05:45:54;;;;;;;8.55;4.95;;;;;;;1.03;80.01;99822.49;1714659;84;21092;-36
2022/04/04 05:48:23;;;;;;;9.23;5.15;;;;;;;1.08;79.93;99834.66;1714454;82;21341;-43
2022/04/04 05:50:49;;;;;;;11.95;6.55;;;;;;;1.11;79.52;99843.36;1729559;83;21118;-36
2022/04/04 05:53:16;;;;;;;8.85;5.65;;;;;;;1.17;79.80;99838.81;1734067;82;21037;-44
2022/04/04 05:55:42;;;;;;;8.95;5.22;;;;;;;1.22;79.20;99837.25;1696075;84;21154;-42
2022/04/04 05:58:09;;;;;;;7.37;5.53;;;;;;;1.29;78.89;99844.33;1694568;84;21045;-37
2022/04/04 06:00:36;;;;;;;7.72;5.35;;;;;;;1.34;79.18;99837.61;1694519;84;21556;-36
2022/04/04 06:03:03;;;;;;;7.08;5.30;;;;;;;1.37;78.56;99848.41;1724837;82;21078;-42
2022/04/04 06:05:30;;;;;;;10.90;5.90;;;;;;;1.39;78.03;99850.20;1740388;82;21598;-44
2022/04/04 06:07:58;;;;;;;6.58;5.35;;;;;;;1.40;77.54;99862.28;1740902;82;22426;-43
2022/04/04 06:10:25;;;;;;;9.28;4.97;;;;;;;1.41;76.50;99865.31;1737016;82;21070;-43
2022/04/04 06:12:53;;;;;;;7.00;5.15;;;;;;;1.40;76.76;99862.28;1691001;83;21021;-42
2022/04/04 06:15:20;;;;;;;6.17;4.97;;;;;;;1.42;76.75;99870.92;1713490;82;21022;-43
2022/04/04 06:17:47;;;;;;;8.15;4.90;;;;;;;1.41;76.04;99866.60;1737205;82;21075;-42
2022/04/04 06:20:14;;;;;;;7.17;5.12;;;;;;;1.41;75.28;99866.60;1736638;82;21103;-34
2022/04/04 06:22:41;;;;;;;8.18;5.00;;;;;;;1.46;77.62;99874.48;1740376;82;21542;-37
2022/04/04 06:25:12;;;;;;;8.55;5.55;;;;;;;1.55;77.04;99876.89;1709143;82;21063;-43
2022/04/04 06:27:41;;;;;;;11.03;6.70;;;;;;;1.63;76.20;99877.56;1690173;82;21017;-35
2022/04/04 06:30:09;;;;;;;8.28;5.85;;;;;;;1.67;74.75;99890.98;1736714;82;21047;-41
2022/04/04 06:32:40;;;;;;;8.00;5.37;;;;;;;1.68;74.42;99882.02;1736583;82;21051;-35
2022/04/04 06:35:08;;;;;;;7.67;5.70;;;;;;;1.75;76.02;99883.94;1692968;84;21057;-42
2022/04/04 06:37:36;;;;;;;9.70;5.55;;;;;;;1.82;75.52;99888.44;1716183;82;21554;-42
2022/04/04 06:40:05;;;;;;;8.35;5.60;;;;;;;1.89;73.94;99894.64;1730831;82;21021;-36
2022/04/04 06:42:39;;;;;;;7.45;6.40;;;;;;;1.91;74.70;99892.09;1728346;82;21053;-41
2022/04/04 06:45:08;;;;;;;7.58;5.60;;;;;;;1.98;75.91;99896.20;1706090;82;21555;-35
2022/04/04 06:47:36;;;;;;;6.62;5.42;;;;;;;2.12;74.15;99896.57;1700251;82;21009;-42
2022/04/04 06:50:03;;;;;;;10.18;5.70;;;;;;;2.16;72.98;99898.41;1728248;82;21578;-42
2022/04/04 06:52:32;;;;;;;8.95;5.85;;;;;;;2.17;71.66;99896.70;1704040;82;21109;-37
2022/04/04 06:55:00;;;;;;;12.45;5.95;;;;;;;2.19;72.36;99907.94;1735171;82;21055;-37
2022/04/04 06:57:26;;;;;;;7.22;5.45;;;;;;;2.24;72.41;99896.03;1716159;82;21023;-43
2022/04/04 06:59:53;;;;;;;24.40;8.78;;;;;;;2.31;72.70;99909.55;1737130;82;21071;-36
2022/04/04 07:02:20;;;;;;;10.68;6.20;;;;;;;2.42;74.20;99910.72;1734409;82;21028;-43
2022/04/04 07:04:46;;;;;;;8.30;6.05;;;;;;;2.55;73.20;99911.52;1736158;82;20986;-36
2022/04/04 07:07:14;;;;;;;9.25;5.80;;;;;;;2.63;70.78;99903.53;1689071;82;21092;-36
2022/04/04 07:09:41;;;;;;;9.58;5.62;;;;;;;2.68;72.80;99901.08;1724734;82;20989;-43
2022/04/04 07:12:09;;;;;;;9.15;6.17;;;;;;;2.78;69.67;99903.45;1673705;84;21170;-43
2022/04/04 07:14:36;;;;;;;7.40;5.58;;;;;;;2.80;70.36;99910.42;1732681;82;21031;-36
2022/04/04 07:17:04;;;;;;;7.28;5.60;;;;;;;2.81;68.96;99904.41;1675025;82;21044;-36
2022/04/04 07:19:37;;;;;;;9.50;5.75;;;;;;;2.84;68.50;99904.89;1736702;82;20989;-36
2022/04/04 07:22:01;;;;;;;11.50;6.03;;;;;;;2.86;69.00;99906.70;1735918;82;21511;-43
2022/04/04 07:24:28;;;;;;;8.03;5.87;;;;;;;2.86;67.03;99905.41;1706494;82;21031;-42
2022/04/04 07:26:55;;;;;;;9.48;6.30;;;;;;;2.93;69.85;99914.18;1711803;82;21067;-36
2022/04/04 07:29:21;;;;;;;7.22;5.20;;;;;;;3.03;69.68;99911.41;1733021;82;21029;-36
2022/04/04 07:31:49;;;;;;;7.20;4.72;;;;;;;3.09;64.87;99933.53;1728258;82;21142;-35
2022/04/04 07:34:16;;;;;;;12.60;5.12;;;;;;;3.11;67.63;99929.26;1722108;82;21509;-42
2022/04/04 07:36:42;;;;;;;7.17;5.30;;;;;;;3.19;64.96;99930.33;1700952;82;21124;-43
2022/04/04 07:39:09;;;;;;;7.50;5.08;;;;;;;3.25;65.96;99937.33;1709842;82;21038;-36
2022/04/04 07:41:37;;;;;;;8.13;5.47;;;;;;;3.31;66.96;99953.89;1707657;83;21201;-43
2022/04/04 07:44:05;;;;;;;8.45;6.05;;;;;;;3.39;66.29;99946.30;1676613;83;21047;-42
2022/04/04 07:46:33;;;;;;;7.80;5.37;;;;;;;3.49;66.33;99947.40;1726160;82;21018;-36
2022/04/04 07:49:00;;;;;;;10.40;6.00;;;;;;;3.53;64.20;99946.19;1711691;82;21667;-42
2022/04/04 07:51:27;;;;;;;8.05;5.35;;;;;;;3.59;64.28;99950.20;1700041;82;21561;-42
2022/04/04 07:53:54;;;;;;;6.80;5.22;;;;;;;3.65;61.98;99955.55;1729237;82;21045;-43
2022/04/04 07:56:21;;;;;;;6.70;5.58;;;;;;;3.70;61.27;99963.37;1726592;82;21608;-42
2022/04/04 07:58:48;;;;;;;6.35;4.80;;;;;;;3.77;62.53;99944.98;1725663;82;21545;-43
2022/04/04 08:01:15;;;;;;;8.90;5.17;;;;;;;3.88;63.35;99965.08;1727712;81;21037;-42
2022/04/04 08:03:41;;;;;;;7.03;4.97;;;;;;;3.98;60.79;99960.98;1739856;82;21622;-36
2022/04/04 08:06:08;;;;;;;9.03;5.47;;;;;;;4.00;59.67;99955.40;1684398;83;21028;-36
2022/04/04 08:08:35;;;;;;;7.10;4.60;;;;;;;4.02;59.74;99956.33;1731642;82;21529;-36
2022/04/04 08:11:03;;;;;;;7.40;5.60;;;;;;;4.10;60.36;99956.47;1706770;82;21070;-36
2022/04/04 08:13:31;;;;;;;8.05;5.60;;;;;;;4.19;59.78;99970.50;1695197;82;21049;-43
2022/04/04 08:16:00;;;;;;;7.92;5.30;;;;;;;4.30;58.28;99956.90;1725582;82;21039;-43
2022/04/04 08:18:28;;;;;;;10.28;5.45;;;;;;;4.35;59.31;99964.31;1706904;82;21025;-35
2022/04/04 08:20:57;;;;;;;6.65;5.20;;;;;;;4.44;61.15;99961.48;1725918;82;21085;-42
2022/04/04 08:23:29;;;;;;;14.98;4.97;;;;;;;4.56;57.87;99955.66;1682646;82;21071;-42
2022/04/04 08:25:53;;;;;;;6.05;4.50;;;;;;;4.64;56.62;99957.09;1730846;82;21105;-42
2022/04/04 08:28:20;;;;;;;8.93;6.10;;;;;;;4.66;54.44;99957.59;1701307;82;21017;-43
2022/04/04 08:30:47;;;;;;;8.83;5.33;;;;;;;4.69;56.30;99959.34;1728067;82;21354;-43
2022/04/04 08:33:15;;;;;;;9.28;5.42;;;;;;;4.74;57.72;99971.55;1711801;82;21034;-36
2022/04/04 08:35:45;;;;;;;6.17;4.97;;;;;;;4.76;54.89;99957.34;1736512;82;21067;-36
2022/04/04 08:38:13;;;;;;;8.63;5.85;;;;;;;4.74;55.92;99959.88;1729965;82;21531;-42
2022/04/04 08:40:41;;;;;;;9.60;4.45;;;;;;;4.88;55.34;99952.38;1735426;82;21051;-42
2022/04/04 08:43:11;;;;;;;7.78;4.90;;;;;;;5.00;51.02;99949.98;1736931;82;21656;-43
2022/04/04 08:45:39;;;;;;;8.45;5.40;;;;;;;5.09;53.30;99960.92;1685766;82;21032;-36
2022/04/04 08:48:06;;;;;;;7.67;4.90;;;;;;;5.21;53.84;99957.23;1698097;82;21019;-42
2022/04/04 08:50:36;;;;;;;11.15;5.08;;;;;;;5.27;52.06;99959.92;1734780;82;21077;-43
2022/04/04 08:53:02;;;;;;;8.35;5.03;;;;;;;5.30;51.05;99953.50;1714736;82;21507;-36
2022/04/04 08:55:29;;;;;;;7.90;4.78;;;;;;;5.38;51.93;99947.13;1711878;82;22384;-36
2022/04/04 08:57:56;;;;;;;5.03;3.92;;;;;;;5.44;51.60;99930.77;1737262;82;21569;-35
2022/04/04 09:00:25;;;;;;;6.50;4.58;;;;;;;5.43;51.83;99942.88;1737110;82;21185;-35
2022/04/04 09:03:04;;;;;;;6.72;4.03;;;;;;;5.41;48.89;99934.64;1716064;82;21096;-41
2022/04/04 09:05:34;;;;;;;11.20;5.05;;;;;;;5.48;52.29;99931.28;1686882;84;21026;-36
2022/04/04 09:08:06;;;;;;;6.28;5.12;;;;;;;5.52;46.13;99945.63;1708815;82;21055;-37
2022/04/04 09:10:37;;;;;;;5.67;4.08;;;;;;;5.52;48.72;99948.22;1714738;82;21079;-42
2022/04/04 09:13:13;;;;;;;7.92;4.47;;;;;;;5.66;47.54;99947.53;1720856;82;21055;-43
2022/04/04 09:15:58;;;;;;;6.78;4.53;;;;;;;5.85;47.45;99953.42;1716732;82;21064;-42
2022/04/04 09:18:45;;;;;;;5.37;4.08;;;;;;;5.99;43.91;99952.36;1723957;82;21024;-42
2022/04/04 09:21:25;;;;;;;4.87;3.55;;;;;;;6.01;45.55;99956.70;1716156;82;21542;-35
2022/04/04 09:24:02;;;;;;;6.60;4.53;;;;;;;5.99;44.35;99953.66;1706986;83;21032;-44
2022/04/04 09:26:40;;;;;;;8.60;3.98;;;;;;;5.91;44.49;99960.42;1690492;83;21531;-37
2022/04/04 09:29:20;;;;;;;5.90;3.92;;;;;;;5.80;44.33;99966.36;1733524;82;21096;-42
2022/04/04 09:31:58;;;;;;;5.47;4.00;;;;;;;5.85;44.96;99956.89;1737441;82;21080;-42
2022/04/04 09:34:24;;;;;;;5.67;4.17;;;;;;;6.09;43.70;99948.61;1723649;82;21108;-42
2022/04/04 09:36:52;;;;;;;7.42;3.70;;;;;;;6.17;43.72;99951.28;1737318;82;21085;-43
2022/04/04 09:39:18;;;;;;;6.85;4.15;;;;;;;6.17;42.63;99959.08;1728918;82;21079;-43
2022/04/04 09:41:45;;;;;;;5.55;4.53;;;;;;;6.12;43.80;99959.45;1693175;84;21038;-42
2022/04/04 09:44:12;;;;;;;5.80;4.12;;;;;;;6.03;44.14;99956.32;1714713;82;21912;-38
2022/04/04 09:46:41;;;;;;;5.67;4.15;;;;;;;6.01;45.45;99954.11;1707439;82;21037;-43
2022/04/04 09:49:15;;;;;;;5.65;4.00;;;;;;;6.01;43.67;99958.00;1745057;82;21597;-43
2022/04/04 09:51:48;;;;;;;7.33;4.70;;;;;;;5.98;43.37;99955.39;1712032;82;21075;-36
2022/04/04 09:54:23;;;;;;;7.85;4.85;;;;;;;5.97;43.48;99957.55;1729068;82;21047;-42
2022/04/04 09:56:51;;;;;;;9.28;6.50;;;;;;;5.87;41.98;99967.31;1709873;84;21047;-38
2022/04/04 09:59:18;;;;;;;6.87;4.78;;;;;;;5.70;42.23;99965.78;1713234;82;21086;-37
2022/04/04 10:01:45;;;;;;;6.58;4.92;;;;;;;5.62;43.03;99968.67;1733736;82;21559;-41
2022/04/04 10:04:12;;;;;;;5.35;4.37;;;;;;;5.54;43.50;99963.80;1709914;83;21596;-43
2022/04/04 10:06:45;;;;;;;8.03;4.28;;;;;;;5.43;43.35;99967.52;1732031;83;21050;-42
2022/04/04 10:09:11;;;;;;;4.47;3.72;;;;;;;5.40;42.40;99971.81;1742202;82;21005;-43
2022/04/04 10:11:39;;;;;;;4.87;3.80;;;;;;;5.39;42.43;99972.64;1720418;82;21073;-36
2022/04/04 10:14:07;;;;;;;4.03;3.35;;;;;;;5.36;42.02;99977.37;1720773;82;21497;-44
2022/04/04 10:16:33;;;;;;;5.40;4.10;;;;;;;5.31;41.52;99978.58;1737349;81;21124;-37
2022/04/04 10:19:01;;;;;;;3.92;3.50;;;;;;;5.28;43.26;99969.90;1731114;82;21047;-40
2022/04/04 10:21:27;;;;;;;4.85;4.05;;;;;;;5.31;42.40;99973.39;1738444;82;21013;-38
2022/04/04 10:23:59;;;;;;;7.55;3.70;;;;;;;5.58;42.19;99972.09;1716114;82;21478;-43
2022/04/04 10:26:30;;;;;;;5.97;3.85;;;;;;;5.81;40.15;99977.19;1717229;82;21597;-42
2022/04/04 10:29:16;;;;;;;6.67;3.85;;;;;;;6.10;40.02;99985.84;1715028;82;21059;-35
2022/04/04 10:31:53;;;;;;;6.70;3.90;;;;;;;6.44;42.03;99988.86;1712355;83;21051;-43
2022/04/04 10:34:22;;;;;;;6.45;4.08;;;;;;;7.00;39.00;99969.06;1725346;82;21025;-43
2022/04/04 10:37:08;;;;;;;4.83;3.58;;;;;;;7.55;37.72;99975.61;1713674;82;21571;-37
2022/04/04 10:39:47;;;;;;;8.10;4.28;;;;;;;7.94;35.66;99969.78;1710830;82;21024;-43
2022/04/04 10:42:34;;;;;;;8.43;5.00;;;;;;;7.92;36.68;99966.28;1710543;83;20991;-44
2022/04/04 10:45:07;;;;;;;5.10;4.50;;;;;;;7.66;38.05;99962.23;1741267;81;21045;-36
2022/04/04 10:47:36;;;;;;;5.55;4.08;;;;;;;7.30;37.67;99973.66;1735502;82;21018;-42
2022/04/04 10:50:33;;;;;;;5.42;4.03;;;;;;;6.94;36.84;99980.28;1728710;81;21065;-43
2022/04/04 10:53:01;;;;;;;5.28;4.03;;;;;;;6.69;38.25;99978.30;1729048;82;21617;-35
2022/04/04 10:55:40;;;;;;;6.60;3.33;;;;;;;6.64;37.32;99977.81;1737438;81;21573;-41
2022/04/04 10:58:21;;;;;;;5.80;4.25;;;;;;;6.70;36.10;99976.14;1736394;82;21030;-35
2022/04/04 11:01:09;;;;;;;5.72;4.25;;;;;;;6.65;36.62;99982.58;1716321;82;21133;-43
2022/04/04 11:03:52;;;;;;;4.60;3.90;;;;;;;6.51;37.43;99986.77;1720709;82;21043;-42
2022/04/04 11:09:32;;;;;;;6.22;4.78;;;;;;;6.32;39.51;99985.27;1736613;82;21054;-42
2022/04/04 11:12:13;;;;;;;8.30;3.87;;;;;;;6.31;39.72;99984.79;1736396;82;21397;-36
